Time;durP1;ratioP1;P1;durP2;ratioP2;P2;SDS_P1;SDS_P2;PMS_P1;PMS_P2;Temp;Humidity;BMP_temperature;BMP_pressure;BME280_temperature;BME280_humidity;BME280_pressure;Samples;Min_cycle;Max_cycle;Signal;HPM_P1;HPM_P2
2022/11/16 00:00:59;;;;;;;;;;;;;;;11.33;55.05;98568.34;5010428;28;20074;-78
2022/11/16 00:03:25;;;;;;;;;;;;;;;11.32;55.22;98568.47;5010798;28;19921;-78
2022/11/16 00:05:54;;;;;;;;;;;;;;;11.30;55.43;98565.97;5011103;28;20290;-80
2022/11/16 00:08:19;;;;;;;;;;;;;;;11.29;55.23;98573.94;4978698;28;19928;-80
2022/11/16 00:10:44;;;;;;;;;;;;;;;11.28;55.15;98580.16;4978740;28;20028;-80
2022/11/16 00:13:10;;;;;;;;;;;;;;;11.25;55.22;98577.78;4994730;28;20385;-78
2022/11/16 00:15:35;;;;;;;;;;;;;;;11.23;55.58;98577.91;4978601;28;19918;-79
2022/11/16 00:18:00;;;;;;;;;;;;;;;11.22;55.25;98578.84;4978740;28;19972;-78
2022/11/16 00:20:26;;;;;;;;;;;;;;;11.20;55.27;98575.53;4995124;28;20290;-78
2022/11/16 00:22:51;;;;;;;;;;;;;;;11.18;55.21;98566.97;4994671;28;19924;-79
2022/11/16 00:25:16;;;;;;;;;;;;;;;11.16;55.31;98553.22;4978326;28;19924;-78
2022/11/16 00:27:41;;;;;;;;;;;;;;;11.15;55.28;98556.81;4994952;28;19924;-77
2022/11/16 00:30:08;;;;;;;;;;;;;;;11.14;55.42;98544.69;5012295;28;19922;-77
2022/11/16 00:32:33;;;;;;;;;;;;;;;11.14;55.56;98555.13;4978791;28;19967;-77
2022/11/16 00:34:59;;;;;;;;;;;;;;;11.13;55.41;98556.06;5012215;28;19925;-78
2022/11/16 00:37:24;;;;;;;;;;;;;;;11.12;55.39;98551.81;4994819;28;19963;-77
2022/11/16 00:39:49;;;;;;;;;;;;;;;11.12;55.44;98557.88;4995049;28;20072;-78
2022/11/16 00:42:15;;;;;;;;;;;;;;;11.10;55.24;98554.56;4994681;28;19976;-77
2022/11/16 00:44:40;;;;;;;;;;;;;;;11.09;55.38;98552.91;4995104;28;19918;-78
2022/11/16 00:47:05;;;;;;;;;;;;;;;11.08;55.33;98539.97;4994780;28;19924;-77
2022/11/16 00:49:31;;;;;;;;;;;;;;;11.07;55.37;98535.69;4978060;28;19968;-78
2022/11/16 00:51:56;;;;;;;;;;;;;;;11.06;55.41;98536.66;4994374;28;19917;-79
2022/11/16 00:54:21;;;;;;;;;;;;;;;11.06;55.46;98539.25;4994357;28;19918;-79
2022/11/16 00:56:47;;;;;;;;;;;;;;;11.03;55.29;98535.09;4978189;28;20373;-78
2022/11/16 00:59:12;;;;;;;;;;;;;;;11.02;55.34;98529.06;4978814;28;20012;-79
2022/11/16 01:01:37;;;;;;;;;;;;;;;11.02;55.46;98533.44;4994591;28;19917;-79
2022/11/16 01:04:03;;;;;;;;;;;;;;;11.02;55.67;98528.22;4992252;28;20427;-80
2022/11/16 01:06:28;;;;;;;;;;;;;;;11.01;55.34;98524.78;4974731;28;19976;-79
2022/11/16 01:08:53;;;;;;;;;;;;;;;10.98;55.43;98517.19;4974471;28;19922;-79
2022/11/16 01:14:03;;;;;;;;;;;;;;;10.97;55.52;98515.53;4994857;28;19968;-79
2022/11/16 01:16:28;;;;;;;;;;;;;;;10.95;55.38;98514.00;4978477;28;19914;-79
2022/11/16 01:18:54;;;;;;;;;;;;;;;10.94;55.46;98515.81;4994690;28;20351;-80
2022/11/16 01:21:19;;;;;;;;;;;;;;;10.92;55.33;98506.44;4978376;28;19924;-79
2022/11/16 01:23:44;;;;;;;;;;;;;;;10.91;55.47;98503.00;4977976;28;19918;-79
2022/11/16 01:26:10;;;;;;;;;;;;;;;10.90;55.51;98500.50;4994611;28;20033;-80
2022/11/16 01:28:35;;;;;;;;;;;;;;;10.87;55.22;98501.56;4978334;28;20380;-79
2022/11/16 01:31:00;;;;;;;;;;;;;;;10.85;55.57;98506.09;4994484;28;19995;-78
2022/11/16 01:33:26;;;;;;;;;;;;;;;10.83;55.41;98503.63;4978156;28;20380;-79
2022/11/16 01:35:51;;;;;;;;;;;;;;;10.81;55.60;98497.66;4994740;28;19969;-78
2022/11/16 01:38:16;;;;;;;;;;;;;;;10.81;55.19;98496.84;4977849;28;19918;-78
2022/11/16 01:40:41;;;;;;;;;;;;;;;10.79;55.34;98494.34;4994463;28;19918;-79
2022/11/16 01:43:16;;;;;;;;;;;;;;;10.80;55.49;98489.97;4994173;28;19928;-79
2022/11/16 01:45:42;;;;;;;;;;;;;;;10.78;55.39;98486.66;4994280;28;20008;-78
2022/11/16 01:48:08;;;;;;;;;;;;;;;10.77;55.68;98484.97;4977796;28;20020;-79
2022/11/16 01:50:33;;;;;;;;;;;;;;;10.78;55.54;98478.81;4977833;28;19918;-79
2022/11/16 01:53:01;;;;;;;;;;;;;;;10.77;55.82;98474.53;4994653;28;20438;-79
2022/11/16 01:55:27;;;;;;;;;;;;;;;10.77;55.87;98475.38;4977830;28;19925;-78
2022/11/16 01:57:52;;;;;;;;;;;;;;;10.77;55.87;98464.94;4994168;28;19925;-78
2022/11/16 02:00:17;;;;;;;;;;;;;;;10.78;55.83;98463.97;4994105;28;19947;-78
2022/11/16 02:02:43;;;;;;;;;;;;;;;10.77;55.59;98459.72;4977808;28;19917;-78
2022/11/16 02:05:08;;;;;;;;;;;;;;;10.76;55.58;98458.06;4977417;28;20060;-79
2022/11/16 02:10:49;;;;;;;;;;;;;;;10.75;55.79;98456.38;4995013;28;19923;-78
2022/11/16 02:13:34;;;;;;;;;;;;;;;10.74;56.00;98448.72;4993893;28;19925;-78
2022/11/16 02:16:08;;;;;;;;;;;;;;;10.72;55.87;98450.59;4993420;28;19956;-78
2022/11/16 02:18:35;;;;;;;;;;;;;;;10.71;55.82;98451.56;5009644;28;19957;-80
2022/11/16 02:21:14;;;;;;;;;;;;;;;10.71;56.01;98446.34;4977422;28;19925;-79
2022/11/16 02:23:42;;;;;;;;;;;;;;;10.71;55.91;98448.94;4992695;28;19957;-78
2022/11/16 02:26:34;;;;;;;;;;;;;;;10.71;56.07;98444.56;4993498;28;19928;-78
2022/11/16 02:29:17;;;;;;;;;;;;;;;10.70;56.01;98447.28;4971705;28;20409;-78
2022/11/16 02:31:51;;;;;;;;;;;;;;;10.70;55.85;98442.06;4993438;28;19918;-78
2022/11/16 02:34:17;;;;;;;;;;;;;;;10.68;55.99;98439.59;4977164;28;19918;-78
2022/11/16 02:36:42;;;;;;;;;;;;;;;10.67;56.10;98430.94;4993575;28;20432;-78
2022/11/16 02:39:09;;;;;;;;;;;;;;;10.66;56.30;98436.28;4976573;28;19942;-78
2022/11/16 02:41:35;;;;;;;;;;;;;;;10.65;56.23;98438.03;4976988;28;19917;-78
2022/11/16 02:44:02;;;;;;;;;;;;;;;10.63;56.15;98445.16;4993431;28;20009;-78
2022/11/16 02:46:28;;;;;;;;;;;;;;;10.62;55.97;98448.72;4993359;28;19918;-78
2022/11/16 02:48:55;;;;;;;;;;;;;;;10.59;55.99;98440.31;4992824;28;19924;-78
2022/11/16 02:51:20;;;;;;;;;;;;;;;10.56;56.10;98444.00;4992850;28;19968;-78
2022/11/16 02:54:01;;;;;;;;;;;;;;;10.54;55.95;98434.66;4976771;28;20312;-78
2022/11/16 02:56:27;;;;;;;;;;;;;;;10.53;55.97;98438.22;4993067;28;19941;-78
2022/11/16 02:58:52;;;;;;;;;;;;;;;10.51;55.88;98435.72;4976423;28;20389;-78
2022/11/16 03:01:19;;;;;;;;;;;;;;;10.50;56.04;98429.69;4992777;28;19972;-78
2022/11/16 03:04:08;;;;;;;;;;;;;;;10.48;55.78;98431.59;4992765;28;19957;-77
2022/11/16 03:06:33;;;;;;;;;;;;;;;10.45;55.69;98428.38;4975090;28;19925;-77
2022/11/16 03:09:00;;;;;;;;;;;;;;;10.44;55.90;98434.56;4992385;28;20290;-77
2022/11/16 03:14:11;;;;;;;;;;;;;;;10.38;55.80;98428.06;4992939;28;19972;-77
2022/11/16 03:16:40;;;;;;;;;;;;;;;10.38;55.60;98429.84;4976265;28;19913;-77
2022/11/16 03:19:07;;;;;;;;;;;;;;;10.35;55.87;98422.25;4992388;28;19925;-77
2022/11/16 03:21:38;;;;;;;;;;;;;;;10.32;55.60;98412.84;4976041;28;19918;-77
2022/11/16 03:24:04;;;;;;;;;;;;;;;10.30;55.62;98410.38;4975909;28;19933;-77
2022/11/16 03:26:31;;;;;;;;;;;;;;;10.30;55.75;98410.38;4976096;28;19918;-77
2022/11/16 03:28:59;;;;;;;;;;;;;;;10.30;55.91;98415.59;4992371;28;19953;-76
2022/11/16 03:31:34;;;;;;;;;;;;;;;10.27;55.80;98409.81;4992160;28;19922;-77
2022/11/16 03:34:01;;;;;;;;;;;;;;;10.25;55.80;98401.28;4997305;28;19969;-77
2022/11/16 03:36:28;;;;;;;;;;;;;;;10.23;55.74;98401.41;5011519;28;20388;-77
2022/11/16 03:38:54;;;;;;;;;;;;;;;10.22;55.72;98402.34;5011399;28;19918;-79
2022/11/16 03:41:20;;;;;;;;;;;;;;;10.20;55.32;98393.81;4995399;28;20375;-78
2022/11/16 03:43:45;;;;;;;;;;;;;;;10.19;55.82;98392.16;5008527;28;19936;-77
2022/11/16 03:46:10;;;;;;;;;;;;;;;10.19;55.67;98381.72;4976323;28;20356;-78
2022/11/16 03:48:39;;;;;;;;;;;;;;;10.16;55.65;98381.97;4975146;28;20282;-78
2022/11/16 03:51:04;;;;;;;;;;;;;;;10.14;55.68;98383.88;4991954;28;19925;-78
2022/11/16 03:53:29;;;;;;;;;;;;;;;10.10;55.64;98378.09;4991778;28;19918;-80
2022/11/16 03:55:55;;;;;;;;;;;;;;;10.09;55.48;98368.59;4992016;28;19957;-78
2022/11/16 03:58:20;;;;;;;;;;;;;;;10.08;55.70;98376.53;4993693;28;19957;-78
2022/11/16 04:00:45;;;;;;;;;;;;;;;10.05;55.49;98367.16;4991974;28;19917;-78
2022/11/16 04:03:11;;;;;;;;;;;;;;;10.04;55.75;98364.69;4992065;28;19918;-78
2022/11/16 04:24:46;;;;;;;;;;;;;;;10.01;56.08;98337.09;4991879;28;19925;-77
2022/11/16 04:29:56;;;;;;;;;;;;;;;10.01;56.37;98326.66;4991535;28;19929;-80
2022/11/16 04:37:51;;;;;;;;;;;;;;;10.04;56.38;98341.22;4991683;28;19979;-74
2022/11/16 04:40:28;;;;;;;;;;;;;;;10.07;56.57;98343.56;4975182;28;20369;-75
2022/11/16 04:43:00;;;;;;;;;;;;;;;10.09;58.26;98336.47;4991772;28;19918;-73
2022/11/16 04:48:09;;;;;;;;;;;;;;;10.59;70.71;98354.19;4994113;28;20395;-73
2022/11/16 04:50:35;;;;;;;;;;;;;;;10.60;66.32;98351.44;4995215;28;20008;-73
2022/11/16 04:53:00;;;;;;;;;;;;;;;10.58;64.01;98337.72;4995435;28;19976;-72
2022/11/16 04:55:25;;;;;;;;;;;;;;;10.53;62.94;98331.19;4994868;28;19918;-74
2022/11/16 04:57:51;;;;;;;;;;;;;;;10.50;62.49;98324.47;4995232;28;20296;-73
2022/11/16 05:00:16;;;;;;;;;;;;;;;10.47;61.99;98343.00;4978294;28;19918;-73
2022/11/16 05:02:41;;;;;;;;;;;;;;;10.44;61.58;98348.47;4978373;28;19918;-79
2022/11/16 05:05:07;;;;;;;;;;;;;;;10.39;61.05;98346.22;4979493;28;19925;-79
2022/11/16 05:07:32;;;;;;;;;;;;;;;10.39;61.06;98340.16;5010144;28;19926;-73
2022/11/16 05:09:58;;;;;;;;;;;;;;;10.36;60.54;98332.59;5013713;28;19918;-72
2022/11/16 05:12:24;;;;;;;;;;;;;;;10.82;72.16;98339.25;5037518;28;19924;-71
2022/11/16 05:14:49;;;;;;;;;;;;;;;11.06;70.20;98338.13;5014005;28;19948;-75
2022/11/16 05:17:14;;;;;;;;;;;;;;;11.00;65.21;98337.66;5014109;28;19917;-75
2022/11/16 05:22:24;;;;;;;;;;;;;;;10.84;63.23;98329.47;5014253;28;19924;-74
2022/11/16 05:24:49;;;;;;;;;;;;;;;10.79;62.89;98332.47;5013928;28;19917;-73
2022/11/16 05:27:15;;;;;;;;;;;;;;;10.76;62.69;98322.28;5015252;28;19917;-74
2022/11/16 05:29:40;;;;;;;;;;;;;;;10.75;62.48;98322.41;5015658;28;20296;-75
2022/11/16 05:32:05;;;;;;;;;;;;;;;10.74;61.96;98318.16;5013773;28;19939;-75
2022/11/16 05:34:31;;;;;;;;;;;;;;;10.75;62.03;98322.41;5013878;28;19918;-73
2022/11/16 05:36:56;;;;;;;;;;;;;;;10.74;61.67;98316.38;5014245;28;19937;-72
2022/11/16 05:39:22;;;;;;;;;;;;;;;10.87;61.28;98318.78;5014298;28;20004;-71
2022/11/16 05:41:47;;;;;;;;;;;;;;;11.04;60.69;98309.53;5025912;28;19960;-76
2022/11/16 05:44:12;;;;;;;;;;;;;;;11.14;60.45;98320.03;4994795;28;20312;-74
2022/11/16 05:46:38;;;;;;;;;;;;;;;11.22;60.15;98318.38;4995618;28;19924;-73
2022/11/16 05:49:06;;;;;;;;;;;;;;;11.24;59.68;98313.03;4978469;28;19917;-74
2022/11/16 05:51:32;;;;;;;;;;;;;;;11.23;59.82;98322.66;4995625;28;19917;-74
2022/11/16 05:53:57;;;;;;;;;;;;;;;11.30;59.58;98315.13;4994418;28;20060;-76
2022/11/16 05:56:22;;;;;;;;;;;;;;;11.43;67.12;98314.06;4995621;28;19925;-76
2022/11/16 05:58:48;;;;;;;;;;;;;;;11.74;62.66;98326.13;4992812;28;20016;-76
2022/11/16 06:01:13;;;;;;;;;;;;;;;12.27;60.78;98324.97;4977506;28;20435;-76
2022/11/16 06:03:38;;;;;;;;;;;;;;;12.51;58.34;98323.72;4976056;28;19918;-76
2022/11/16 06:06:04;;;;;;;;;;;;;;;12.56;57.90;98331.16;4994441;28;20386;-76
2022/11/16 06:08:29;;;;;;;;;;;;;;;12.81;56.34;98324.50;4993970;28;19968;-76
2022/11/16 06:10:54;;;;;;;;;;;;;;;13.33;55.14;98327.53;4995293;28;20011;-76
2022/11/16 06:13:20;;;;;;;;;;;;;;;14.09;53.27;98329.03;4993963;28;20042;-78
2022/11/16 06:15:45;;;;;;;;;;;;;;;15.06;50.80;98318.63;4977668;28;19968;-74
2022/11/16 06:18:10;;;;;;;;;;;;;;;16.03;48.46;98318.34;5001901;28;19971;-75
2022/11/16 06:20:36;;;;;;;;;;;;;;;17.00;45.27;98311.44;5014549;28;19975;-74
2022/11/16 06:23:02;;;;;;;;;;;;;;;17.89;43.25;98316.53;5014370;28;19924;-75
2022/11/16 06:25:29;;;;;;;;;;;;;;;18.67;40.84;98316.44;5014459;28;19922;-75
2022/11/16 06:27:55;;;;;;;;;;;;;;;19.41;39.12;98309.59;4997276;28;19917;-75
2022/11/16 06:30:20;;;;;;;;;;;;;;;20.02;36.97;98302.16;4996721;28;19968;-76
2022/11/16 06:32:45;;;;;;;;;;;;;;;20.39;36.30;98304.75;4980634;28;19948;-75
2022/11/16 06:35:10;;;;;;;;;;;;;;;20.19;36.19;98307.19;4996720;28;19918;-76
2022/11/16 06:37:36;;;;;;;;;;;;;;;19.15;37.83;98302.94;4980427;28;20311;-77
2022/11/16 06:40:01;;;;;;;;;;;;;;;18.51;38.82;98296.25;4996755;28;19972;-77
2022/11/16 06:42:26;;;;;;;;;;;;;;;18.05;39.01;98296.28;4996580;28;19918;-77
2022/11/16 06:44:52;;;;;;;;;;;;;;;17.70;39.33;98295.81;4996621;28;20024;-76
2022/11/16 06:47:17;;;;;;;;;;;;;;;17.44;40.07;98296.94;5014208;28;19921;-76
2022/11/16 06:49:42;;;;;;;;;;;;;;;17.23;40.36;98299.31;4996601;28;20391;-77
2022/11/16 06:52:08;;;;;;;;;;;;;;;17.14;40.59;98288.81;5014011;28;19922;-76
2022/11/16 06:54:33;;;;;;;;;;;;;;;16.98;41.14;98283.56;4978715;28;19924;-76
2022/11/16 06:56:58;;;;;;;;;;;;;;;17.06;40.87;98296.72;4993008;28;19925;-76
2022/11/16 06:59:24;;;;;;;;;;;;;;;16.89;40.94;98295.13;4993876;28;20388;-76
2022/11/16 07:01:49;;;;;;;;;;;;;;;16.78;41.06;98291.84;4976655;28;20021;-75
2022/11/16 07:04:15;;;;;;;;;;;;;;;16.64;41.31;98287.25;4976883;28;19918;-76
2022/11/16 07:06:40;;;;;;;;;;;;;;;16.57;41.34;98284.47;4994018;28;19957;-76
2022/11/16 07:09:06;;;;;;;;;;;;;;;16.68;41.29;98285.91;4992532;28;20407;-77
2022/11/16 07:11:31;;;;;;;;;;;;;;;17.13;40.45;98276.59;4992698;28;19914;-77
2022/11/16 07:13:56;;;;;;;;;;;;;;;17.24;40.10;98274.59;4992489;28;19918;-75
2022/11/16 07:16:22;;;;;;;;;;;;;;;18.00;38.95;98274.88;4992459;28;19914;-75
2022/11/16 07:18:47;;;;;;;;;;;;;;;18.76;37.74;98270.41;4976605;28;20304;-75
2022/11/16 07:21:15;;;;;;;;;;;;;;;19.49;36.69;98272.41;4992415;28;20369;-76
2022/11/16 07:23:41;;;;;;;;;;;;;;;20.08;35.24;98270.63;4975862;28;20013;-76
2022/11/16 07:26:06;;;;;;;;;;;;;;;20.59;34.38;98271.25;4992010;28;20015;-76
2022/11/16 07:28:32;;;;;;;;;;;;;;;21.13;33.04;98261.81;4992579;28;19941;-76
2022/11/16 07:31:04;;;;;;;;;;;;;;;21.55;32.67;98266.31;4995233;28;19925;-76
2022/11/16 07:33:29;;;;;;;;;;;;;;;21.97;31.67;98267.03;5013192;28;19921;-78
2022/11/16 07:35:59;;;;;;;;;;;;;;;22.36;31.26;98265.44;4979463;28;19918;-75
2022/11/16 07:38:24;;;;;;;;;;;;;;;22.79;30.32;98256.19;4995492;28;19960;-77
2022/11/16 07:40:49;;;;;;;;;;;;;;;23.16;29.81;98257.38;5012933;28;19987;-76
2022/11/16 07:43:14;;;;;;;;;;;;;;;23.41;29.08;98254.00;4995300;28;19939;-77
2022/11/16 07:45:40;;;;;;;;;;;;;;;23.63;28.48;98254.53;5012767;28;19917;-76
2022/11/16 07:48:05;;;;;;;;;;;;;;;23.74;28.12;98261.03;4995371;28;19924;-77
2022/11/16 07:50:30;;;;;;;;;;;;;;;23.95;28.40;98257.22;4995690;28;19968;-76
2022/11/16 07:52:56;;;;;;;;;;;;;;;24.08;28.04;98253.66;4995475;28;19975;-76
2022/11/16 07:55:23;;;;;;;;;;;;;;;24.18;27.54;98257.47;4994915;28;19917;-76
2022/11/16 07:57:48;;;;;;;;;;;;;;;24.29;27.71;98263.13;4995674;28;20008;-75
2022/11/16 08:00:13;;;;;;;;;;;;;;;24.35;27.35;98262.25;4995125;28;19956;-76
2022/11/16 08:02:39;;;;;;;;;;;;;;;24.46;27.31;98256.19;4978890;28;20352;-76
2022/11/16 08:05:04;;;;;;;;;;;;;;;24.59;27.09;98259.81;4995731;28;19921;-76
2022/11/16 08:07:31;;;;;;;;;;;;;;;24.69;26.69;98255.63;5007099;28;20312;-75
2022/11/16 08:09:57;;;;;;;;;;;;;;;24.72;26.76;98255.19;5012743;28;19961;-76
2022/11/16 08:12:22;;;;;;;;;;;;;;;24.82;26.71;98259.19;5027712;28;19959;-76
2022/11/16 08:14:48;;;;;;;;;;;;;;;24.88;26.35;98255.66;5011494;28;19921;-78
2022/11/16 08:17:13;;;;;;;;;;;;;;;24.98;26.57;98241.78;5011864;28;19917;-76
2022/11/16 08:19:41;;;;;;;;;;;;;;;25.03;26.10;98236.59;5027867;28;19918;-76
2022/11/16 08:22:06;;;;;;;;;;;;;;;25.10;26.05;98246.16;5027818;28;20008;-76
2022/11/16 08:24:31;;;;;;;;;;;;;;;25.19;26.08;98245.84;5014995;28;20405;-75
2022/11/16 08:26:57;;;;;;;;;;;;;;;25.34;25.86;98237.50;5016384;28;19917;-76
2022/11/16 08:29:23;;;;;;;;;;;;;;;25.37;25.93;98235.19;5015353;28;19924;-75
2022/11/16 08:31:48;;;;;;;;;;;;;;;25.50;25.52;98242.22;5015227;28;19925;-75
2022/11/16 08:34:14;;;;;;;;;;;;;;;25.60;25.68;98247.00;5015179;28;19918;-76
2022/11/16 08:36:39;;;;;;;;;;;;;;;25.74;25.68;98237.75;5014759;28;20024;-76
2022/11/16 08:39:05;;;;;;;;;;;;;;;25.79;25.50;98229.06;5010747;28;20444;-75
2022/11/16 08:41:30;;;;;;;;;;;;;;;25.88;24.88;98238.38;4978955;28;20115;-76
2022/11/16 08:43:58;;;;;;;;;;;;;;;25.96;25.26;98234.56;4979107;28;19918;-77
2022/11/16 08:46:23;;;;;;;;;;;;;;;26.12;24.83;98236.59;5014560;28;19917;-76
2022/11/16 08:48:48;;;;;;;;;;;;;;;26.27;24.57;98230.81;5014812;28;19960;-76
2022/11/16 08:51:14;;;;;;;;;;;;;;;26.42;24.12;98229.53;5031237;28;19921;-76
2022/11/16 08:53:39;;;;;;;;;;;;;;;26.62;24.29;98229.22;4997341;28;19927;-75
2022/11/16 08:56:06;;;;;;;;;;;;;;;26.99;23.99;98221.72;5016196;28;20415;-77
2022/11/16 08:58:31;;;;;;;;;;;;;;;27.68;22.86;98215.56;5014878;28;20280;-76
2022/11/16 09:00:57;;;;;;;;;;;;;;;28.25;22.08;98201.25;5014560;28;19918;-76
2022/11/16 09:03:22;;;;;;;;;;;;;;;29.09;21.43;98202.13;5015983;28;19917;-77
2022/11/16 09:05:47;;;;;;;;;;;;;;;29.88;20.50;98200.03;5015909;28;19922;-75
2022/11/16 09:08:12;;;;;;;;;;;;;;;30.46;19.50;98200.22;4997954;28;20316;-77
2022/11/16 09:10:38;;;;;;;;;;;;;;;30.44;19.17;98199.66;4981907;28;19924;-77
2022/11/16 09:13:03;;;;;;;;;;;;;;;29.95;19.94;98193.38;4981786;28;20407;-76
2022/11/16 09:15:29;;;;;;;;;;;;;;;29.35;20.45;98197.91;4998237;28;19918;-78
2022/11/16 09:17:54;;;;;;;;;;;;;;;28.81;21.50;98197.75;4981968;28;19918;-76
2022/11/16 09:20:20;;;;;;;;;;;;;;;28.43;22.02;98191.31;4998165;28;19921;-76
2022/11/16 09:22:45;;;;;;;;;;;;;;;28.14;22.09;98183.38;4997825;28;19918;-76
2022/11/16 09:25:10;;;;;;;;;;;;;;;28.40;22.23;98179.22;5015501;28;20004;-76
2022/11/16 09:27:36;;;;;;;;;;;;;;;29.10;21.26;98173.38;5015258;28;19924;-76
2022/11/16 09:30:01;;;;;;;;;;;;;;;30.14;20.09;98171.44;4981439;28;19917;-78
2022/11/16 09:32:27;;;;;;;;;;;;;;;31.26;18.73;98165.00;4997880;28;19918;-81
2022/11/16 09:34:52;;;;;;;;;;;;;;;31.83;18.19;98163.22;4997434;28;19987;-78
2022/11/16 09:37:18;;;;;;;;;;;;;;;32.10;17.90;98160.28;4997491;28;19921;-77
2022/11/16 09:39:43;;;;;;;;;;;;;;;31.78;18.23;98146.22;4997647;28;19918;-76
2022/11/16 09:42:27;;;;;;;;;;;;;;;31.55;18.41;98151.88;5015672;28;19921;-76
2022/11/16 09:44:58;;;;;;;;;;;;;;;31.11;19.01;98140.72;5015617;28;19925;-77
2022/11/16 09:47:25;;;;;;;;;;;;;;;30.58;19.79;98138.06;5013869;28;19917;-77
2022/11/16 09:49:52;;;;;;;;;;;;;;;30.40;20.51;98140.13;4980887;28;20293;-77
2022/11/16 09:52:37;;;;;;;;;;;;;;;29.95;20.73;98128.81;4981173;28;19917;-76
2022/11/16 09:55:21;;;;;;;;;;;;;;;29.73;20.85;98126.19;4981014;28;19918;-77
2022/11/16 09:57:46;;;;;;;;;;;;;;;29.44;21.34;98120.28;4980821;28;19968;-76
2022/11/16 10:00:16;;;;;;;;;;;;;;;29.17;21.52;98114.88;4987498;28;19921;-77
2022/11/16 10:02:43;;;;;;;;;;;;;;;28.94;21.71;98116.81;4977251;28;20012;-77
2022/11/16 10:05:14;;;;;;;;;;;;;;;28.68;22.33;98107.63;4961464;28;19929;-76
2022/11/16 10:07:43;;;;;;;;;;;;;;;28.39;22.60;98099.72;4994937;28;19925;-76
2022/11/16 10:10:13;;;;;;;;;;;;;;;28.15;23.09;98101.84;4977812;28;19941;-78
2022/11/16 10:12:45;;;;;;;;;;;;;;;27.95;23.17;98091.59;4961339;28;19980;-76
2022/11/16 10:15:29;;;;;;;;;;;;;;;27.75;23.81;98084.03;4977546;28;19917;-77
2022/11/16 10:17:59;;;;;;;;;;;;;;;27.52;23.75;98082.34;4994938;28;19922;-75
2022/11/16 10:20:24;;;;;;;;;;;;;;;27.34;24.52;98070.81;4977596;28;19925;-75
2022/11/16 10:22:50;;;;;;;;;;;;;;;27.17;24.65;98061.91;4994515;28;19925;-76
2022/11/16 10:25:21;;;;;;;;;;;;;;;27.03;24.79;98058.69;4994642;28;19918;-76
2022/11/16 10:27:46;;;;;;;;;;;;;;;26.82;25.09;98060.16;4994979;28;19918;-76
2022/11/16 10:30:13;;;;;;;;;;;;;;;26.58;25.24;98062.91;4994408;28;20312;-77
2022/11/16 10:32:49;;;;;;;;;;;;;;;26.39;25.57;98054.22;4977154;28;20277;-77
2022/11/16 10:35:34;;;;;;;;;;;;;;;26.23;26.14;98053.09;4994383;28;19961;-76
2022/11/16 10:38:02;;;;;;;;;;;;;;;25.92;26.40;98052.41;4961552;28;20312;-77
2022/11/16 10:40:37;;;;;;;;;;;;;;;25.76;26.50;98050.41;4977444;28;20424;-76
2022/11/16 10:43:14;;;;;;;;;;;;;;;25.61;26.88;98053.56;4977172;28;19925;-80
2022/11/16 10:45:46;;;;;;;;;;;;;;;25.49;27.38;98055.41;4993716;28;19918;-79
2022/11/16 10:48:13;;;;;;;;;;;;;;;25.36;27.61;98056.44;4976104;28;20420;-77
2022/11/16 10:50:43;;;;;;;;;;;;;;;25.25;27.79;98052.66;4960589;28;19922;-77
2022/11/16 10:53:12;;;;;;;;;;;;;;;25.14;27.83;98040.88;4994115;28;19929;-78
2022/11/16 10:55:38;;;;;;;;;;;;;;;24.91;28.00;98052.31;4960757;28;19922;-75
2022/11/16 10:58:03;;;;;;;;;;;;;;;24.77;28.69;98048.22;4977266;28;19918;-75
2022/11/16 11:00:32;;;;;;;;;;;;;;;24.77;28.68;98045.53;4976776;28;20301;-76
2022/11/16 11:02:57;;;;;;;;;;;;;;;24.55;29.12;98037.97;4994344;28;19918;-78
2022/11/16 11:05:24;;;;;;;;;;;;;;;24.43;29.04;98029.09;4960157;28;19929;-75
2022/11/16 11:07:50;;;;;;;;;;;;;;;24.20;29.46;98036.72;4990800;28;20384;-76
2022/11/16 11:10:23;;;;;;;;;;;;;;;24.13;29.77;98027.19;4992596;28;20015;-76
2022/11/16 11:13:04;;;;;;;;;;;;;;;24.02;30.01;98018.91;4977142;28;19980;-76
2022/11/16 11:15:29;;;;;;;;;;;;;;;23.81;30.45;98013.94;5010904;28;20072;-77
2022/11/16 11:18:10;;;;;;;;;;;;;;;23.73;30.42;98016.91;5013174;28;20011;-76
2022/11/16 11:20:35;;;;;;;;;;;;;;;23.60;30.65;98008.00;5028420;28;19924;-77
2022/11/16 11:23:04;;;;;;;;;;;;;;;23.44;30.88;98011.22;5011994;28;20324;-76
2022/11/16 11:25:31;;;;;;;;;;;;;;;23.34;31.36;98002.91;5012011;28;20430;-75
2022/11/16 11:28:03;;;;;;;;;;;;;;;23.16;31.36;98003.66;5013008;28;20249;-76
2022/11/16 11:30:29;;;;;;;;;;;;;;;23.08;31.76;98002.06;5012007;28;19921;-76
2022/11/16 11:32:54;;;;;;;;;;;;;;;22.94;32.03;97999.47;5012373;28;19917;-76
2022/11/16 11:35:26;;;;;;;;;;;;;;;22.74;32.12;98004.91;5011961;28;19917;-76
2022/11/16 11:37:52;;;;;;;;;;;;;;;22.56;32.74;97994.97;5012256;28;20430;-76
2022/11/16 11:40:18;;;;;;;;;;;;;;;22.50;32.52;97992.34;5011524;28;19917;-76
2022/11/16 11:43:00;;;;;;;;;;;;;;;22.42;32.61;97993.41;5011722;28;19918;-76
2022/11/16 11:45:28;;;;;;;;;;;;;;;22.30;33.24;97989.78;5012014;28;19925;-75
2022/11/16 11:48:12;;;;;;;;;;;;;;;22.17;33.23;97986.13;5012870;28;20012;-75
2022/11/16 11:50:44;;;;;;;;;;;;;;;21.93;33.42;97984.16;5027959;28;20277;-76
2022/11/16 11:53:28;;;;;;;;;;;;;;;21.79;33.91;97973.56;5012331;28;19917;-76
2022/11/16 11:55:55;;;;;;;;;;;;;;;21.73;34.02;97979.69;5012952;28;19917;-74
2022/11/16 11:58:21;;;;;;;;;;;;;;;21.58;34.54;97977.25;5028049;28;19977;-76
2022/11/16 12:00:49;;;;;;;;;;;;;;;21.40;34.84;97971.75;5011851;28;20328;-77
2022/11/16 12:03:21;;;;;;;;;;;;;;;21.22;35.01;97967.03;5027780;28;20009;-76
2022/11/16 12:05:58;;;;;;;;;;;;;;;20.99;35.54;97965.63;5012604;28;19922;-77
2022/11/16 12:08:27;;;;;;;;;;;;;;;20.84;35.96;97957.84;5011307;28;19928;-77
2022/11/16 12:10:54;;;;;;;;;;;;;;;20.76;36.07;97950.91;5012800;28;19961;-77
2022/11/16 12:13:26;;;;;;;;;;;;;;;20.61;36.30;97958.19;4978644;28;20327;-76
2022/11/16 12:15:51;;;;;;;;;;;;;;;20.49;36.69;97957.94;5011584;28;19924;-76
2022/11/16 12:18:39;;;;;;;;;;;;;;;20.46;36.83;97950.38;5012668;28;19917;-76
2022/11/16 12:21:16;;;;;;;;;;;;;;;20.35;37.00;97953.63;4995201;28;19983;-75
2022/11/16 12:23:45;;;;;;;;;;;;;;;20.23;37.04;97948.09;4994926;28;19925;-76
2022/11/16 12:26:16;;;;;;;;;;;;;;;20.20;37.04;97953.78;5012653;28;20016;-77
2022/11/16 12:28:54;;;;;;;;;;;;;;;20.10;37.31;97948.84;5011276;28;19924;-76
2022/11/16 12:31:32;;;;;;;;;;;;;;;19.93;37.81;97952.84;4975744;28;20399;-76
2022/11/16 12:34:04;;;;;;;;;;;;;;;19.83;37.88;97954.03;4992951;28;19918;-77
2022/11/16 12:36:41;;;;;;;;;;;;;;;19.69;38.14;97942.50;4975757;28;19917;-77
2022/11/16 12:39:06;;;;;;;;;;;;;;;19.57;38.52;97941.41;4991083;28;19918;-76
2022/11/16 12:41:39;;;;;;;;;;;;;;;19.47;38.61;97944.41;4992919;28;20024;-75
2022/11/16 12:44:07;;;;;;;;;;;;;;;19.35;38.83;97938.00;4992449;28;20340;-77
2022/11/16 12:46:41;;;;;;;;;;;;;;;19.27;39.16;97931.03;4991910;28;19925;-77
2022/11/16 12:49:09;;;;;;;;;;;;;;;19.10;39.33;97927.03;4992913;28;19976;-78
2022/11/16 12:51:41;;;;;;;;;;;;;;;19.00;39.67;97926.56;4993361;28;20033;-77
2022/11/16 12:54:22;;;;;;;;;;;;;;;19.00;39.51;97923.91;4991530;28;19925;-78
2022/11/16 12:57:08;;;;;;;;;;;;;;;18.93;39.67;97927.31;4992590;28;19918;-76
2022/11/16 12:59:39;;;;;;;;;;;;;;;18.84;39.68;97923.16;4991365;28;20819;-77
2022/11/16 13:02:07;;;;;;;;;;;;;;;18.86;39.69;97921.13;4993077;28;20016;-80
2022/11/16 13:04:35;;;;;;;;;;;;;;;18.87;39.84;97924.63;4991645;28;20307;-77
2022/11/16 13:07:04;;;;;;;;;;;;;;;18.83;39.91;97924.13;4999052;28;19969;-77
2022/11/16 13:09:31;;;;;;;;;;;;;;;18.81;39.88;97923.50;4977781;28;19921;-76
2022/11/16 13:11:57;;;;;;;;;;;;;;;18.74;39.97;97925.28;4996077;28;19918;-76
2022/11/16 13:14:23;;;;;;;;;;;;;;;18.67;40.17;97932.31;4978272;28;19918;-77
2022/11/16 13:16:49;;;;;;;;;;;;;;;18.62;40.10;97928.41;4978834;28;19976;-79
2022/11/16 13:19:14;;;;;;;;;;;;;;;18.54;40.40;97925.88;4995171;28;19918;-76
2022/11/16 13:21:52;;;;;;;;;;;;;;;18.48;40.28;97918.72;4995098;28;19969;-77
2022/11/16 13:24:20;;;;;;;;;;;;;;;18.48;40.23;97924.00;4995742;28;19940;-76
2022/11/16 13:26:55;;;;;;;;;;;;;;;18.43;40.36;97919.28;4996044;28;20364;-76
2022/11/16 13:29:25;;;;;;;;;;;;;;;18.42;40.51;97912.38;4995855;28;19917;-76
2022/11/16 13:31:50;;;;;;;;;;;;;;;18.37;40.51;97912.09;4978120;28;19933;-77